Time;durP1;ratioP1;P1;durP2;ratioP2;P2;SDS_P1;SDS_P2;PMS_P1;PMS_P2;Temp;Humidity;BMP_temperature;BMP_pressure;BME280_temperature;BME280_humidity;BME280_pressure;Samples;Min_cycle;Max_cycle;Signal;HPM_P1;HPM_P2
2020/12/04 00:02:12;;;;;;;412.17;234.35;;;;;;;;;;5068804;28;20029;-61
2020/12/04 00:04:39;;;;;;;414.63;237.30;;;;;;;;;;5065260;28;20021;-62
2020/12/04 00:07:05;;;;;;;418.73;237.60;;;;;;;;;;5063602;28;20020;-61
2020/12/04 00:09:31;;;;;;;417.00;238.10;;;;;;;;;;5064473;28;20050;-61
2020/12/04 00:11:57;;;;;;;421.58;241.02;;;;;;;;;;5069106;28;20138;-61
2020/12/04 00:14:23;;;;;;;415.50;236.15;;;;;;;;;;5070492;28;20037;-61
2020/12/04 00:16:49;;;;;;;414.88;236.68;;;;;;;;;;5066591;28;20095;-61
2020/12/04 00:19:15;;;;;;;417.38;239.52;;;;;;;;;;5066383;28;20052;-62
2020/12/04 00:21:41;;;;;;;418.02;236.25;;;;;;;;;;5070555;28;20082;-61
2020/12/04 00:24:07;;;;;;;416.17;235.52;;;;;;;;;;5066696;28;20020;-61
2020/12/04 00:26:37;;;;;;;413.73;230.07;;;;;;;;;;5071414;28;20104;-61
2020/12/04 00:29:03;;;;;;;420.02;237.15;;;;;;;;;;5067387;28;20401;-61
2020/12/04 00:31:29;;;;;;;414.80;233.20;;;;;;;;;;5068736;28;20070;-60
2020/12/04 00:33:55;;;;;;;418.10;232.73;;;;;;;;;;5069315;28;20049;-63
2020/12/04 00:36:21;;;;;;;412.42;231.57;;;;;;;;;;5071581;28;20044;-61
2020/12/04 00:38:47;;;;;;;418.38;234.80;;;;;;;;;;5068922;28;20024;-61
2020/12/04 00:41:13;;;;;;;418.17;237.93;;;;;;;;;;5070880;28;20420;-61
2020/12/04 00:43:39;;;;;;;415.50;232.38;;;;;;;;;;5066293;28;20074;-61
2020/12/04 00:46:05;;;;;;;419.83;234.55;;;;;;;;;;5066488;28;20093;-61
2020/12/04 00:48:31;;;;;;;415.05;231.65;;;;;;;;;;5064923;28;20373;-61
2020/12/04 00:50:57;;;;;;;411.98;229.43;;;;;;;;;;5069090;28;20020;-62
2020/12/04 00:53:22;;;;;;;416.08;230.70;;;;;;;;;;5070184;28;20055;-61
2020/12/04 00:55:50;;;;;;;416.17;232.90;;;;;;;;;;5068546;28;20055;-61
2020/12/04 00:58:16;;;;;;;415.58;227.45;;;;;;;;;;5065189;28;20016;-61
2020/12/04 01:00:42;;;;;;;414.33;229.65;;;;;;;;;;5062872;28;20044;-61
2020/12/04 01:03:07;;;;;;;423.02;235.13;;;;;;;;;;5068221;28;20039;-62
2020/12/04 01:05:33;;;;;;;415.83;228.20;;;;;;;;;;5067161;28;20020;-61
2020/12/04 01:07:59;;;;;;;411.70;226.25;;;;;;;;;;5067740;28;20036;-61
2020/12/04 01:10:25;;;;;;;412.23;228.40;;;;;;;;;;5068715;28;20066;-61
2020/12/04 01:12:51;;;;;;;415.33;228.75;;;;;;;;;;5064259;28;20419;-61
2020/12/04 01:15:17;;;;;;;415.00;229.45;;;;;;;;;;5066174;28;20017;-61
2020/12/04 01:17:43;;;;;;;413.73;228.27;;;;;;;;;;5066815;28;20021;-62
2020/12/04 01:20:09;;;;;;;416.65;232.98;;;;;;;;;;5057955;28;20029;-61
2020/12/04 01:22:35;;;;;;;413.70;227.55;;;;;;;;;;5068867;28;20032;-61
2020/12/04 01:25:01;;;;;;;413.98;229.07;;;;;;;;;;5068056;28;20029;-61
2020/12/04 01:27:27;;;;;;;412.70;224.43;;;;;;;;;;5065821;28;20016;-61
2020/12/04 01:29:53;;;;;;;414.92;227.98;;;;;;;;;;5063989;28;20058;-62
2020/12/04 01:32:19;;;;;;;418.65;230.73;;;;;;;;;;5062539;28;20055;-61
2020/12/04 01:34:45;;;;;;;415.45;226.05;;;;;;;;;;5068498;28;20041;-61
2020/12/04 01:37:11;;;;;;;415.73;227.07;;;;;;;;;;5060609;28;20043;-61
2020/12/04 01:39:37;;;;;;;406.88;222.27;;;;;;;;;;5068397;28;20701;-61
2020/12/04 01:42:03;;;;;;;413.73;225.48;;;;;;;;;;5068079;28;20355;-61
2020/12/04 01:44:29;;;;;;;410.20;224.27;;;;;;;;;;5070418;28;20634;-61
2020/12/04 01:46:55;;;;;;;415.40;226.43;;;;;;;;;;5063698;28;20039;-64
2020/12/04 01:49:21;;;;;;;417.38;227.85;;;;;;;;;;5066416;28;20091;-61
2020/12/04 01:51:47;;;;;;;412.42;225.02;;;;;;;;;;5061195;28;20044;-61
2020/12/04 01:54:14;;;;;;;415.25;224.07;;;;;;;;;;5067181;28;20229;-60
2020/12/04 01:56:40;;;;;;;411.38;222.38;;;;;;;;;;5060984;28;20032;-61
2020/12/04 01:59:07;;;;;;;413.40;224.05;;;;;;;;;;5068456;28;20050;-61
2020/12/04 02:01:38;;;;;;;415.63;226.93;;;;;;;;;;5066193;28;20032;-61
2020/12/04 02:04:06;;;;;;;418.80;229.30;;;;;;;;;;5065315;28;20423;-60
2020/12/04 02:06:40;;;;;;;414.60;224.20;;;;;;;;;;5069364;28;20020;-60
2020/12/04 02:09:10;;;;;;;414.27;224.15;;;;;;;;;;5063513;28;20048;-61
2020/12/04 02:11:38;;;;;;;415.13;223.20;;;;;;;;;;5069794;28;20036;-61
2020/12/04 02:14:05;;;;;;;411.63;222.07;;;;;;;;;;5068082;28;20040;-62
2020/12/04 02:16:31;;;;;;;412.23;222.00;;;;;;;;;;5062927;28;20017;-61
2020/12/04 02:18:57;;;;;;;415.73;224.63;;;;;;;;;;5069494;28;20092;-61
2020/12/04 02:21:23;;;;;;;411.10;220.80;;;;;;;;;;5067847;28;20104;-62
2020/12/04 02:23:50;;;;;;;413.73;224.63;;;;;;;;;;5057528;28;20024;-61
2020/12/04 02:26:20;;;;;;;413.02;223.23;;;;;;;;;;5066831;28;20323;-61
2020/12/04 02:28:46;;;;;;;416.30;224.38;;;;;;;;;;5069240;28;20086;-61
2020/12/04 02:31:13;;;;;;;416.02;222.23;;;;;;;;;;5061976;28;20024;-61
2020/12/04 02:33:39;;;;;;;412.00;219.13;;;;;;;;;;5069485;28;20025;-60
2020/12/04 02:36:05;;;;;;;413.10;221.57;;;;;;;;;;5069608;28;20528;-61
2020/12/04 02:38:31;;;;;;;413.55;222.65;;;;;;;;;;5070453;28;20027;-61
2020/12/04 02:40:58;;;;;;;413.33;221.52;;;;;;;;;;5066165;28;20029;-60
2020/12/04 02:43:24;;;;;;;418.45;225.68;;;;;;;;;;5068406;28;20032;-61
2020/12/04 02:45:50;;;;;;;416.88;225.85;;;;;;;;;;5071294;28;20118;-61
2020/12/04 02:48:16;;;;;;;412.05;219.30;;;;;;;;;;5063347;28;20021;-61
2020/12/04 02:50:43;;;;;;;416.77;223.93;;;;;;;;;;5066089;28;20024;-61
2020/12/04 02:53:09;;;;;;;415.73;222.90;;;;;;;;;;5068728;28;20024;-60
2020/12/04 02:55:35;;;;;;;418.80;222.15;;;;;;;;;;5072922;28;20020;-61
2020/12/04 02:58:01;;;;;;;415.77;219.48;;;;;;;;;;5060946;28;20032;-61
2020/12/04 03:00:27;;;;;;;411.48;219.95;;;;;;;;;;5068755;28;20617;-61
2020/12/04 03:02:53;;;;;;;415.75;222.88;;;;;;;;;;5070293;28;20055;-61
2020/12/04 03:05:19;;;;;;;411.23;218.98;;;;;;;;;;5068914;28;20024;-60
2020/12/04 03:07:45;;;;;;;414.77;223.40;;;;;;;;;;5070854;28;20024;-60
2020/12/04 03:10:12;;;;;;;413.08;219.70;;;;;;;;;;5072531;28;20024;-61
2020/12/04 03:12:38;;;;;;;418.05;223.27;;;;;;;;;;5069697;28;20024;-61
2020/12/04 03:15:05;;;;;;;412.67;220.25;;;;;;;;;;5068847;28;20096;-60
2020/12/04 03:17:31;;;;;;;412.58;219.40;;;;;;;;;;5069888;28;20053;-60
2020/12/04 03:19:57;;;;;;;417.55;222.73;;;;;;;;;;5072870;28;20028;-60
2020/12/04 03:22:24;;;;;;;415.30;221.60;;;;;;;;;;5072213;28;20025;-60
2020/12/04 03:24:50;;;;;;;410.70;217.93;;;;;;;;;;5072970;28;20074;-58
2020/12/04 03:27:16;;;;;;;415.48;220.07;;;;;;;;;;5070010;28;20028;-58
2020/12/04 03:29:42;;;;;;;415.77;220.40;;;;;;;;;;5065019;28;20028;-58
2020/12/04 03:32:08;;;;;;;413.77;219.35;;;;;;;;;;5063075;28;20036;-58
2020/12/04 03:34:34;;;;;;;411.27;217.73;;;;;;;;;;5070208;28;20142;-58
2020/12/04 03:37:00;;;;;;;418.90;222.63;;;;;;;;;;5067151;28;20149;-59
2020/12/04 03:39:26;;;;;;;412.05;217.77;;;;;;;;;;5072865;28;20016;-59
2020/12/04 03:41:52;;;;;;;416.20;219.77;;;;;;;;;;5067755;28;20037;-58
2020/12/04 03:44:18;;;;;;;415.92;221.20;;;;;;;;;;5064445;28;20024;-58
2020/12/04 03:46:45;;;;;;;414.27;220.27;;;;;;;;;;5069029;28;20027;-59
2020/12/04 03:49:13;;;;;;;412.92;218.63;;;;;;;;;;5069538;28;20060;-59
2020/12/04 03:51:39;;;;;;;412.30;215.52;;;;;;;;;;5068758;28;20025;-58
2020/12/04 03:54:05;;;;;;;417.20;221.65;;;;;;;;;;5069818;28;20043;-59
2020/12/04 03:56:31;;;;;;;411.60;217.75;;;;;;;;;;5047669;28;20309;-58
2020/12/04 03:58:57;;;;;;;413.25;217.05;;;;;;;;;;5069660;28;20024;-60
2020/12/04 04:01:23;;;;;;;411.42;215.68;;;;;;;;;;5070237;28;20028;-60
2020/12/04 04:03:49;;;;;;;408.00;213.18;;;;;;;;;;5072063;28;20600;-60
2020/12/04 04:06:15;;;;;;;412.33;215.82;;;;;;;;;;5070817;28;20086;-60
2020/12/04 04:08:41;;;;;;;412.95;217.13;;;;;;;;;;5070644;28;20028;-62
2020/12/04 04:11:07;;;;;;;415.83;217.80;;;;;;;;;;5066866;28;20016;-61
2020/12/04 04:13:33;;;;;;;412.50;214.15;;;;;;;;;;5066285;28;20385;-60
2020/12/04 04:15:59;;;;;;;416.02;216.02;;;;;;;;;;5066341;28;20067;-60
2020/12/04 04:18:25;;;;;;;413.02;217.38;;;;;;;;;;5061435;28;20039;-60
2020/12/04 04:20:51;;;;;;;410.48;214.15;;;;;;;;;;5064148;28;20033;-62
2020/12/04 04:23:17;;;;;;;411.23;216.00;;;;;;;;;;5071316;28;20044;-61
2020/12/04 04:25:43;;;;;;;412.33;216.07;;;;;;;;;;5064529;28;20016;-60
2020/12/04 04:28:11;;;;;;;411.13;212.98;;;;;;;;;;5069681;28;20024;-60
2020/12/04 04:30:38;;;;;;;410.15;211.88;;;;;;;;;;5071773;28;20427;-60
2020/12/04 04:33:04;;;;;;;413.85;215.88;;;;;;;;;;5068852;28;20339;-60
2020/12/04 04:35:31;;;;;;;411.27;213.23;;;;;;;;;;5063931;28;20123;-61
2020/12/04 04:37:57;;;;;;;408.33;211.18;;;;;;;;;;5071622;28;20024;-64
2020/12/04 04:40:24;;;;;;;410.60;215.73;;;;;;;;;;5068060;28;20028;-60
2020/12/04 04:43:04;;;;;;;408.30;212.20;;;;;;;;;;5062461;28;20024;-60
2020/12/04 04:45:30;;;;;;;407.55;209.40;;;;;;;;;;5070923;28;20029;-60
2020/12/04 04:47:56;;;;;;;410.98;213.52;;;;;;;;;;5064066;28;20013;-60
2020/12/04 04:50:23;;;;;;;409.27;213.20;;;;;;;;;;5071318;28;20032;-61
2020/12/04 04:52:50;;;;;;;410.58;210.73;;;;;;;;;;5059553;28;20624;-60
2020/12/04 04:55:16;;;;;;;411.40;212.50;;;;;;;;;;5068612;28;20413;-60
2020/12/04 04:57:42;;;;;;;410.88;214.55;;;;;;;;;;5067466;28;20029;-60
2020/12/04 05:00:08;;;;;;;408.85;211.73;;;;;;;;;;5062142;28;20330;-60
2020/12/04 05:02:34;;;;;;;409.50;213.70;;;;;;;;;;5069874;28;20469;-47
2020/12/04 05:05:00;;;;;;;406.45;211.85;;;;;;;;;;5070223;28;20036;-61
2020/12/04 05:07:44;;;;;;;410.42;215.30;;;;;;;;;;5070541;28;20024;-60
2020/12/04 05:10:20;;;;;;;408.00;210.90;;;;;;;;;;5063380;28;20465;-60
2020/12/04 05:12:59;;;;;;;411.17;212.75;;;;;;;;;;5070464;28;20028;-60
2020/12/04 05:15:26;;;;;;;408.25;209.15;;;;;;;;;;5063864;28;20035;-61
2020/12/04 05:18:03;;;;;;;411.77;210.15;;;;;;;;;;5058987;28;20025;-60
2020/12/04 05:20:30;;;;;;;410.23;208.30;;;;;;;;;;5070591;28;20013;-60
2020/12/04 05:22:58;;;;;;;411.05;213.30;;;;;;;;;;5070872;28;20413;-60
2020/12/04 05:25:24;;;;;;;406.65;211.43;;;;;;;;;;5058538;28;20614;-60
2020/12/04 05:27:50;;;;;;;411.30;213.15;;;;;;;;;;5065112;28;20024;-60
2020/12/04 05:30:23;;;;;;;419.83;216.60;;;;;;;;;;5070008;28;20043;-60
2020/12/04 05:32:59;;;;;;;413.63;210.13;;;;;;;;;;5066902;28;20040;-60
2020/12/04 05:35:25;;;;;;;418.48;212.63;;;;;;;;;;5065150;28;20016;-60
2020/12/04 05:38:04;;;;;;;411.00;209.85;;;;;;;;;;5065676;28;20032;-60
2020/12/04 05:40:31;;;;;;;416.92;213.02;;;;;;;;;;5067918;28;20091;-61
2020/12/04 05:42:57;;;;;;;414.55;214.32;;;;;;;;;;5070489;28;20025;-60
2020/12/04 05:45:23;;;;;;;405.92;210.20;;;;;;;;;;5057769;28;20407;-61
2020/12/04 05:47:49;;;;;;;407.98;208.68;;;;;;;;;;5063238;28;20070;-60
2020/12/04 05:50:15;;;;;;;411.58;212.73;;;;;;;;;;5068643;28;20031;-60
2020/12/04 05:52:41;;;;;;;411.38;214.57;;;;;;;;;;5064374;28;20054;-60
2020/12/04 05:55:08;;;;;;;415.45;216.80;;;;;;;;;;5066745;28;20028;-60
2020/12/04 05:57:42;;;;;;;412.58;210.85;;;;;;;;;;5065940;28;20056;-60
2020/12/04 06:00:08;;;;;;;415.17;212.75;;;;;;;;;;5066625;28;20027;-60
2020/12/04 06:02:34;;;;;;;412.38;212.25;;;;;;;;;;5059812;28;20020;-60
2020/12/04 06:05:00;;;;;;;412.20;211.45;;;;;;;;;;5069959;28;20077;-60
2020/12/04 06:07:27;;;;;;;407.40;209.05;;;;;;;;;;5069635;28;20040;-60
2020/12/04 06:09:56;;;;;;;416.00;215.68;;;;;;;;;;5062512;28;20360;-60
2020/12/04 06:12:23;;;;;;;412.02;210.73;;;;;;;;;;5070654;28;20330;-60
2020/12/04 06:14:49;;;;;;;400.58;204.90;;;;;;;;;;5072174;28;20167;-60
2020/12/04 06:17:15;;;;;;;399.85;204.50;;;;;;;;;;5073355;28;20013;-60
2020/12/04 06:19:42;;;;;;;403.33;207.75;;;;;;;;;;5074109;28;20036;-60
2020/12/04 06:22:18;;;;;;;401.83;205.05;;;;;;;;;;5074687;28;20027;-60
2020/12/04 06:24:56;;;;;;;407.10;209.77;;;;;;;;;;5063709;28;20056;-60
2020/12/04 06:27:34;;;;;;;400.77;206.30;;;;;;;;;;5070148;28;20016;-60
2020/12/04 06:30:06;;;;;;;403.20;205.45;;;;;;;;;;5069725;28;20113;-60
2020/12/04 06:32:42;;;;;;;403.15;206.02;;;;;;;;;;5065514;28;20016;-59
2020/12/04 06:35:09;;;;;;;404.00;205.95;;;;;;;;;;5068768;28;20036;-60
2020/12/04 06:37:42;;;;;;;410.40;211.02;;;;;;;;;;5073311;28;20040;-60
2020/12/04 06:40:27;;;;;;;408.58;207.95;;;;;;;;;;5065187;28;20031;-60
2020/12/04 06:42:57;;;;;;;408.80;206.68;;;;;;;;;;5061570;28;20051;-58
2020/12/04 06:45:23;;;;;;;415.02;213.35;;;;;;;;;;5062533;28;20024;-60
2020/12/04 06:48:08;;;;;;;408.45;210.85;;;;;;;;;;5073832;28;20086;-60
2020/12/04 06:50:43;;;;;;;402.52;204.07;;;;;;;;;;5072299;28;20035;-61
2020/12/04 06:53:10;;;;;;;403.02;204.90;;;;;;;;;;5067932;28;20035;-60
2020/12/04 06:55:36;;;;;;;409.52;209.77;;;;;;;;;;5068260;28;20031;-61
2020/12/04 06:58:02;;;;;;;406.20;210.02;;;;;;;;;;5072656;28;20051;-60
2020/12/04 07:00:29;;;;;;;407.55;208.43;;;;;;;;;;5071348;28;20445;-60
2020/12/04 07:02:55;;;;;;;409.23;212.38;;;;;;;;;;5059745;28;20056;-60
2020/12/04 07:05:24;;;;;;;409.65;214.50;;;;;;;;;;5068950;28;20095;-60
2020/12/04 07:07:50;;;;;;;406.15;209.15;;;;;;;;;;5069006;28;20343;-61
2020/12/04 07:10:16;;;;;;;410.55;215.27;;;;;;;;;;5070145;28;20033;-61
2020/12/04 07:12:42;;;;;;;411.35;215.98;;;;;;;;;;5069258;28;20522;-61
2020/12/04 07:15:08;;;;;;;406.40;211.27;;;;;;;;;;5070916;28;20032;-60
2020/12/04 07:17:34;;;;;;;402.67;212.30;;;;;;;;;;5073772;28;20704;-60
2020/12/04 07:20:00;;;;;;;403.90;209.35;;;;;;;;;;5070694;28;20029;-60
2020/12/04 07:22:27;;;;;;;402.63;208.80;;;;;;;;;;5068218;28;20021;-60
2020/12/04 07:24:54;;;;;;;407.33;211.25;;;;;;;;;;5056791;28;20021;-61
2020/12/04 07:27:21;;;;;;;402.08;207.10;;;;;;;;;;5068708;28;20314;-60
2020/12/04 07:29:47;;;;;;;405.13;210.90;;;;;;;;;;5069836;28;20035;-60
2020/12/04 07:32:13;;;;;;;405.75;213.65;;;;;;;;;;5068583;28;20108;-60
2020/12/04 07:34:39;;;;;;;405.83;211.73;;;;;;;;;;5066786;28;20032;-60
2020/12/04 07:37:06;;;;;;;404.30;210.55;;;;;;;;;;5072861;28;20116;-60
2020/12/04 07:39:33;;;;;;;408.08;212.25;;;;;;;;;;5072085;28;20112;-60
2020/12/04 07:42:00;;;;;;;403.95;208.98;;;;;;;;;;5065591;28;20075;-61
2020/12/04 07:44:31;;;;;;;403.73;210.57;;;;;;;;;;5061160;28;20047;-60
2020/12/04 07:47:06;;;;;;;407.80;208.27;;;;;;;;;;5070599;28;20035;-60
2020/12/04 07:49:32;;;;;;;403.52;209.48;;;;;;;;;;5059784;28;20017;-60
2020/12/04 07:52:11;;;;;;;400.98;206.85;;;;;;;;;;5071190;28;20035;-61
2020/12/04 07:54:38;;;;;;;404.50;208.10;;;;;;;;;;5066927;28;20476;-59
2020/12/04 07:57:05;;;;;;;400.17;208.32;;;;;;;;;;5062152;28;20471;-60
2020/12/04 07:59:32;;;;;;;398.70;207.52;;;;;;;;;;5071075;28;20020;-60
2020/12/04 08:02:01;;;;;;;397.17;206.23;;;;;;;;;;5070080;28;20016;-60
2020/12/04 08:04:28;;;;;;;397.00;204.80;;;;;;;;;;5072238;28;20025;-60
2020/12/04 08:07:13;;;;;;;400.42;208.50;;;;;;;;;;5059478;28;20605;-60
2020/12/04 08:09:39;;;;;;;396.40;203.57;;;;;;;;;;5069960;28;20377;-60
2020/12/04 08:12:09;;;;;;;394.58;205.65;;;;;;;;;;5071252;28;20020;-60
2020/12/04 08:14:35;;;;;;;398.33;205.93;;;;;;;;;;5069485;28;20063;-60
2020/12/04 08:17:01;;;;;;;396.73;206.43;;;;;;;;;;5071819;28;20025;-61
2020/12/04 08:19:31;;;;;;;399.45;207.35;;;;;;;;;;5067020;28;20028;-60
2020/12/04 08:22:07;;;;;;;396.88;206.70;;;;;;;;;;5067714;28;20036;-60
2020/12/04 08:24:38;;;;;;;399.70;207.57;;;;;;;;;;5064091;28;20024;-59
2020/12/04 08:27:07;;;;;;;395.20;205.77;;;;;;;;;;5071224;28;20024;-60
2020/12/04 08:29:33;;;;;;;398.95;207.93;;;;;;;;;;5071461;28;20027;-60
2020/12/04 08:32:03;;;;;;;394.70;204.18;;;;;;;;;;5072112;28;20042;-60
2020/12/04 08:34:29;;;;;;;400.50;210.57;;;;;;;;;;5061759;28;20065;-60
2020/12/04 08:37:06;;;;;;;400.92;209.25;;;;;;;;;;5062465;28;20055;-59
2020/12/04 08:39:36;;;;;;;395.48;206.70;;;;;;;;;;5069937;28;20040;-60
2020/12/04 08:42:21;;;;;;;398.60;208.18;;;;;;;;;;5067986;28;20051;-59
2020/12/04 08:45:00;;;;;;;394.35;204.23;;;;;;;;;;5071948;28;20090;-59
2020/12/04 08:47:27;;;;;;;395.90;206.95;;;;;;;;;;5069037;28;20044;-60
2020/12/04 08:49:54;;;;;;;398.60;210.48;;;;;;;;;;5064384;28;20439;-60
2020/12/04 08:52:39;;;;;;;401.63;213.82;;;;;;;;;;5067125;28;20502;-60
2020/12/04 08:55:08;;;;;;;401.00;213.05;;;;;;;;;;5060408;28;20054;-60
2020/12/04 08:57:33;;;;;;;398.65;212.73;;;;;;;;;;5062863;28;20478;-60
2020/12/04 08:59:59;;;;;;;399.25;213.82;;;;;;;;;;5068363;28;20029;-60
2020/12/04 09:02:25;;;;;;;401.70;215.02;;;;;;;;;;5067762;28;20455;-61
2020/12/04 09:04:51;;;;;;;396.17;211.57;;;;;;;;;;5066547;28;20021;-60
2020/12/04 09:07:17;;;;;;;402.63;220.65;;;;;;;;;;5067515;28;20030;-60
2020/12/04 09:09:43;;;;;;;397.80;218.65;;;;;;;;;;5071092;28;20017;-60
2020/12/04 09:12:09;;;;;;;402.23;221.55;;;;;;;;;;5062069;28;20016;-60
2020/12/04 09:14:35;;;;;;;402.48;218.45;;;;;;;;;;5070332;28;20040;-59
2020/12/04 09:17:01;;;;;;;397.67;218.88;;;;;;;;;;5071164;28;20323;-60
2020/12/04 09:19:28;;;;;;;401.42;220.85;;;;;;;;;;5068950;28;20013;-60
2020/12/04 09:21:54;;;;;;;403.65;224.80;;;;;;;;;;5069629;28;20075;-60
2020/12/04 09:24:20;;;;;;;398.25;220.30;;;;;;;;;;5071011;28;20368;-59
2020/12/04 09:26:46;;;;;;;401.35;224.93;;;;;;;;;;5062460;28;20074;-60
2020/12/04 09:29:11;;;;;;;399.23;223.27;;;;;;;;;;5070834;28;20020;-59
2020/12/04 09:31:37;;;;;;;398.08;222.52;;;;;;;;;;5050263;28;20031;-59
2020/12/04 09:34:03;;;;;;;397.13;223.05;;;;;;;;;;5064811;28;20033;-59
2020/12/04 09:36:29;;;;;;;407.25;228.02;;;;;;;;;;5068227;28;20042;-59
2020/12/04 09:38:55;;;;;;;401.15;222.60;;;;;;;;;;5064021;28;20046;-59
2020/12/04 09:41:21;;;;;;;395.27;221.23;;;;;;;;;;5062759;28;20338;-59
2020/12/04 09:43:47;;;;;;;400.17;222.07;;;;;;;;;;5069018;28;20064;-59
2020/12/04 09:46:13;;;;;;;398.00;222.93;;;;;;;;;;5064287;28;20028;-59
2020/12/04 09:48:39;;;;;;;406.33;229.82;;;;;;;;;;5065419;28;20538;-60
2020/12/04 09:51:05;;;;;;;405.83;228.10;;;;;;;;;;5068180;28;20024;-59
2020/12/04 09:53:31;;;;;;;400.58;224.05;;;;;;;;;;5064352;28;20028;-60
2020/12/04 09:55:57;;;;;;;405.70;225.05;;;;;;;;;;5069807;28;20020;-59
2020/12/04 09:58:23;;;;;;;404.70;225.35;;;;;;;;;;5065519;28;20029;-59
2020/12/04 10:00:49;;;;;;;406.58;225.63;;;;;;;;;;5059076;28;20714;-59
2020/12/04 10:03:15;;;;;;;407.20;227.32;;;;;;;;;;5057850;28;20104;-59
2020/12/04 10:05:41;;;;;;;409.85;230.55;;;;;;;;;;5065929;28;20078;-59
2020/12/04 10:08:07;;;;;;;399.40;221.60;;;;;;;;;;5059760;28;20088;-59
2020/12/04 10:10:33;;;;;;;402.23;223.70;;;;;;;;;;5060269;28;20108;-59
2020/12/04 10:12:59;;;;;;;402.80;225.90;;;;;;;;;;5052298;28;20500;-59
2020/12/04 10:15:25;;;;;;;404.08;222.88;;;;;;;;;;5069524;28;20020;-59
2020/12/04 10:17:51;;;;;;;406.90;227.65;;;;;;;;;;5059758;28;20029;-60
2020/12/04 10:20:17;;;;;;;411.95;230.10;;;;;;;;;;5063860;28;20102;-62
2020/12/04 10:22:43;;;;;;;405.13;229.43;;;;;;;;;;5060346;28;20029;-59
2020/12/04 10:25:09;;;;;;;400.38;225.23;;;;;;;;;;5062470;28;20017;-58
2020/12/04 10:27:35;;;;;;;398.58;223.40;;;;;;;;;;5061029;28;20335;-60
2020/12/04 10:30:01;;;;;;;405.38;228.15;;;;;;;;;;5062197;28;20377;-58
2020/12/04 10:32:27;;;;;;;404.38;227.63;;;;;;;;;;5051622;28;20021;-60
2020/12/04 10:34:53;;;;;;;408.42;230.65;;;;;;;;;;5065369;28;20040;-61
2020/12/04 10:37:19;;;;;;;400.38;226.20;;;;;;;;;;5064026;28;20062;-60
2020/12/04 10:39:46;;;;;;;405.85;231.13;;;;;;;;;;5066541;28;20024;-60
2020/12/04 10:42:12;;;;;;;402.83;226.23;;;;;;;;;;5067505;28;20059;-60
2020/12/04 10:44:38;;;;;;;400.23;227.23;;;;;;;;;;5068569;28;20028;-60
2020/12/04 10:47:04;;;;;;;403.40;231.02;;;;;;;;;;5068897;28;20028;-61
2020/12/04 10:49:30;;;;;;;414.02;235.98;;;;;;;;;;5060218;28;20048;-58
2020/12/04 10:51:57;;;;;;;404.80;229.43;;;;;;;;;;5056805;28;20033;-59
2020/12/04 10:54:23;;;;;;;398.77;226.43;;;;;;;;;;5068877;28;20508;-58
2020/12/04 10:56:53;;;;;;;401.83;227.90;;;;;;;;;;5068386;28;20029;-60
2020/12/04 10:59:19;;;;;;;397.58;225.68;;;;;;;;;;5045451;28;20016;-56
2020/12/04 11:01:50;;;;;;;396.40;226.80;;;;;;;;;;5072246;28;20025;-61
2020/12/04 11:07:01;;;;;;;399.42;228.40;;;;;;;;;;5072589;28;20036;-60
2020/12/04 11:09:27;;;;;;;396.75;226.82;;;;;;;;;;5067262;28;20016;-59
2020/12/04 11:11:54;;;;;;;400.00;230.55;;;;;;;;;;5069701;28;20032;-60
2020/12/04 11:14:20;;;;;;;400.17;228.93;;;;;;;;;;5068711;28;20024;-61
2020/12/04 11:16:46;;;;;;;403.20;230.43;;;;;;;;;;5063029;28;20036;-60
2020/12/04 11:19:12;;;;;;;403.50;232.35;;;;;;;;;;5072570;28;20029;-60
2020/12/04 11:21:38;;;;;;;403.65;231.07;;;;;;;;;;5072509;28;20036;-60
2020/12/04 11:24:04;;;;;;;403.48;231.93;;;;;;;;;;5069030;28;20493;-64
2020/12/04 11:26:30;;;;;;;398.33;229.00;;;;;;;;;;5067584;28;20016;-61
2020/12/04 11:28:56;;;;;;;403.83;233.60;;;;;;;;;;5071696;28;20561;-62
2020/12/04 11:31:22;;;;;;;402.50;232.05;;;;;;;;;;5055729;28;20116;-62
2020/12/04 11:33:48;;;;;;;398.33;227.48;;;;;;;;;;5063424;28;20123;-61
2020/12/04 11:36:14;;;;;;;404.35;236.20;;;;;;;;;;5063702;28;20052;-62
2020/12/04 11:38:40;;;;;;;408.42;235.60;;;;;;;;;;5066119;28;20107;-63
2020/12/04 11:41:07;;;;;;;402.65;229.65;;;;;;;;;;5070195;28;20055;-61
2020/12/04 11:43:33;;;;;;;398.98;228.93;;;;;;;;;;5066427;28;20059;-64
2020/12/04 11:46:00;;;;;;;406.30;234.20;;;;;;;;;;5062351;28;20016;-57
2020/12/04 11:48:26;;;;;;;400.80;232.68;;;;;;;;;;5060070;28;20738;-61
2020/12/04 11:50:52;;;;;;;398.45;226.98;;;;;;;;;;5069329;28;20032;-60
2020/12/04 11:53:18;;;;;;;404.88;233.68;;;;;;;;;;5068744;28;20138;-61
2020/12/04 11:55:44;;;;;;;407.92;234.45;;;;;;;;;;5068097;28;20103;-62
2020/12/04 11:58:10;;;;;;;403.80;232.30;;;;;;;;;;5068750;28;20024;-62
2020/12/04 12:00:36;;;;;;;397.20;228.27;;;;;;;;;;5069857;28;20035;-63
2020/12/04 12:03:02;;;;;;;401.65;232.95;;;;;;;;;;5063568;28;20447;-57
2020/12/04 12:05:28;;;;;;;412.92;241.13;;;;;;;;;;5064627;28;20074;-61
2020/12/04 12:07:54;;;;;;;404.95;237.25;;;;;;;;;;5057636;28;20024;-60
2020/12/04 12:10:20;;;;;;;401.90;234.23;;;;;;;;;;5067735;28;20443;-61
2020/12/04 12:12:47;;;;;;;404.65;237.73;;;;;;;;;;5068807;28;20036;-61
2020/12/04 12:15:13;;;;;;;404.95;237.50;;;;;;;;;;5069067;28;20086;-59
2020/12/04 12:17:39;;;;;;;444.02;261.35;;;;;;;;;;5054167;28;20051;-56
2020/12/04 12:20:05;;;;;;;404.27;237.32;;;;;;;;;;5058289;28;20017;-65
2020/12/04 12:22:31;;;;;;;407.00;236.13;;;;;;;;;;5056815;28;20013;-62
2020/12/04 12:24:57;;;;;;;401.85;239.13;;;;;;;;;;5067663;28;20046;-60
2020/12/04 12:27:23;;;;;;;407.17;237.30;;;;;;;;;;5069451;28;20027;-61
2020/12/04 12:29:49;;;;;;;411.90;242.07;;;;;;;;;;5069946;28;20024;-58
2020/12/04 12:32:15;;;;;;;405.40;238.35;;;;;;;;;;5070802;28;20087;-57
2020/12/04 12:35:05;;;;;;;411.05;238.15;;;;;;;;;;5065116;28;20111;-60
2020/12/04 12:37:32;;;;;;;406.10;234.77;;;;;;;;;;5057256;28;20618;-60
2020/12/04 12:40:04;;;;;;;414.77;241.98;;;;;;;;;;5057698;28;20498;-57
2020/12/04 12:42:31;;;;;;;426.65;243.15;;;;;;;;;;5065990;28;20197;-50
2020/12/04 12:44:58;;;;;;;427.23;237.15;;;;;;;;;;5062353;28;20020;-48
2020/12/04 12:47:25;;;;;;;422.08;233.88;;;;;;;;;;5053905;28;20561;-57
2020/12/04 12:49:51;;;;;;;410.63;225.70;;;;;;;;;;5063455;28;20095;-54
2020/12/04 12:52:17;;;;;;;406.95;221.57;;;;;;;;;;5066253;28;20017;-59
2020/12/04 12:54:43;;;;;;;407.65;224.70;;;;;;;;;;5071923;28;20045;-59
2020/12/04 12:57:09;;;;;;;408.08;222.85;;;;;;;;;;5062289;28;20025;-51
2020/12/04 12:59:35;;;;;;;400.90;219.18;;;;;;;;;;5064682;28;20029;-57
2020/12/04 13:02:01;;;;;;;392.98;216.27;;;;;;;;;;5066391;28;20021;-52
2020/12/04 13:04:27;;;;;;;386.67;210.25;;;;;;;;;;5068456;28;20488;-53
2020/12/04 13:06:53;;;;;;;389.90;212.27;;;;;;;;;;5066295;28;20151;-54
2020/12/04 13:09:20;;;;;;;388.90;214.75;;;;;;;;;;5050558;28;20304;-50
2020/12/04 13:11:46;;;;;;;388.35;213.75;;;;;;;;;;5074427;28;20017;-57
2020/12/04 13:14:12;;;;;;;388.20;211.60;;;;;;;;;;5070685;28;20055;-52
2020/12/04 13:16:42;;;;;;;390.35;216.32;;;;;;;;;;5064631;28;20020;-55
2020/12/04 13:19:09;;;;;;;408.02;225.65;;;;;;;;;;5064961;28;20028;-49
2020/12/04 13:24:39;;;;;;;385.67;211.18;;;;;;;;;;4997190;28;20095;-52
2020/12/04 13:27:06;;;;;;;437.40;362.77;;;;;;;;;;5001720;28;20449;-52
2020/12/04 13:29:32;;;;;;;434.95;359.38;;;;;;;;;;5029314;28;20039;-50
2020/12/04 13:31:59;;;;;;;437.95;362.90;;;;;;;;;;5058995;28;20040;-54
2020/12/04 13:34:26;;;;;;;440.20;369.38;;;;;;;;;;5067595;28;20466;-57
2020/12/04 13:36:52;;;;;;;433.60;365.92;;;;;;;;;;5068804;28;20056;-55
2020/12/04 13:39:19;;;;;;;435.00;367.83;;;;;;;;;;5051243;28;20020;-55
2020/12/04 13:41:45;;;;;;;443.45;370.48;;;;;;;;;;5062271;28;20490;-55
2020/12/04 13:44:11;;;;;;;432.77;365.20;;;;;;;;;;5070706;28;20016;-51
2020/12/04 13:46:37;;;;;;;436.85;368.70;;;;;;;;;;5057399;28;20032;-54
2020/12/04 13:49:04;;;;;;;437.80;371.23;;;;;;;;;;5059448;28;20319;-55
2020/12/04 13:51:35;;;;;;;437.50;368.73;;;;;;;;;;5059902;28;20029;-57
2020/12/04 13:54:01;;;;;;;442.48;371.88;;;;;;;;;;5061764;28;20660;-55
2020/12/04 13:56:27;;;;;;;438.05;367.85;;;;;;;;;;5068400;28;20020;-54
2020/12/04 13:58:53;;;;;;;429.13;363.85;;;;;;;;;;5067781;28;20078;-56